Time;durP1;ratioP1;P1;durP2;ratioP2;P2;SDS_P1;SDS_P2;PMS_P1;PMS_P2;Temp;Humidity;BMP_temperature;BMP_pressure;BME280_temperature;BME280_humidity;BME280_pressure;Samples;Min_cycle;Max_cycle;Signal;HPM_P1;HPM_P2
2022/09/19 00:00:41;;;;;;;8.90;1.00;;;12.60;95.90;;;;;;5076222;28;20060;-78
2022/09/19 00:03:06;;;;;;;9.65;1.08;;;12.60;95.90;;;;;;5075683;28;20032;-78
2022/09/19 00:05:33;;;;;;;12.07;1.40;;;12.60;95.80;;;;;;5075935;28;20031;-78
2022/09/19 00:07:59;;;;;;;14.68;1.52;;;12.50;95.90;;;;;;5076026;28;20059;-78
2022/09/19 00:10:27;;;;;;;8.15;1.05;;;12.50;96.00;;;;;;5075604;28;20044;-78
2022/09/19 00:12:55;;;;;;;12.68;1.38;;;12.60;96.10;;;;;;5076008;28;20029;-78
2022/09/19 00:15:22;;;;;;;12.65;1.17;;;12.60;96.10;;;;;;5075885;28;20380;-78
2022/09/19 00:17:49;;;;;;;12.75;1.50;;;12.60;95.90;;;;;;5075715;28;20052;-78
2022/09/19 00:20:15;;;;;;;12.25;1.45;;;12.60;95.90;;;;;;5075948;28;20107;-78
2022/09/19 00:24:45;;;;;;;13.50;1.38;;;12.60;95.90;;;;;;5075366;28;20028;-79
2022/09/19 00:25:28;;;;;;;12.27;0.98;;;12.60;95.90;;;;;;5074526;28;20380;-79
2022/09/19 00:27:54;;;;;;;13.43;1.83;;;12.60;95.90;;;;;;5075223;28;20044;-79
2022/09/19 00:30:20;;;;;;;10.55;1.10;;;12.60;95.90;;;;;;5075531;28;20024;-79
2022/09/19 00:32:46;;;;;;;11.30;1.55;;;12.60;96.10;;;;;;5075348;28;20460;-79
2022/09/19 00:35:12;;;;;;;11.63;1.10;;;12.50;95.80;;;;;;5075155;28;20032;-79
2022/09/19 00:37:38;;;;;;;9.75;1.25;;;12.50;95.90;;;;;;5075278;28;20035;-79
2022/09/19 00:40:04;;;;;;;18.05;1.45;;;12.50;96.00;;;;;;5075215;28;20028;-78
2022/09/19 00:42:30;;;;;;;13.82;1.67;;;12.50;96.00;;;;;;5075035;28;20036;-78
2022/09/19 00:45:02;;;;;;;13.25;1.40;;;12.40;96.00;;;;;;5075048;28;20028;-79
2022/09/19 00:47:39;;;;;;;11.18;1.30;;;12.40;96.10;;;;;;5075179;28;20568;-79
2022/09/19 00:50:19;;;;;;;14.88;1.85;;;12.40;96.10;;;;;;5075224;28;20466;-79
2022/09/19 00:52:56;;;;;;;12.07;1.50;;;12.40;96.20;;;;;;5075146;28;20024;-79
2022/09/19 00:55:22;;;;;;;11.43;1.05;;;12.40;96.20;;;;;;5075204;28;20036;-79
2022/09/19 00:58:26;;;;;;;9.55;0.98;;;12.40;96.10;;;;;;5075041;28;20150;-79
2022/09/19 01:00:52;;;;;;;13.40;1.27;;;12.40;96.00;;;;;;5075013;28;20024;-77
2022/09/19 01:03:18;;;;;;;13.25;1.10;;;12.40;96.10;;;;;;5074951;28;20480;-77
2022/09/19 01:05:55;;;;;;;11.25;1.27;;;12.50;96.10;;;;;;5074697;28;20051;-78
2022/09/19 01:08:42;;;;;;;14.38;1.40;;;12.50;96.20;;;;;;5074741;28;20384;-77
2022/09/19 01:11:29;;;;;;;14.07;1.35;;;12.50;96.10;;;;;;5074419;28;20028;-77
2022/09/19 01:14:01;;;;;;;8.90;1.10;;;12.50;96.10;;;;;;5074550;28;20479;-78
2022/09/19 01:16:48;;;;;;;11.20;1.40;;;12.60;96.20;;;;;;5074560;28;20028;-78
2022/09/19 01:20:00;;;;;;;13.23;1.67;;;12.60;96.30;;;;;;5074339;28;20028;-78
2022/09/19 01:22:52;;;;;;;10.30;1.13;;;12.70;96.20;;;;;;5074532;28;20029;-78
2022/09/19 01:25:21;;;;;;;9.18;1.23;;;12.70;96.10;;;;;;5074570;28;20058;-78
2022/09/19 01:28:14;;;;;;;9.18;1.20;;;12.70;96.10;;;;;;5074138;28;20430;-78
2022/09/19 01:31:16;;;;;;;15.05;0.98;;;12.80;96.20;;;;;;5074176;28;20060;-78
2022/09/19 01:33:42;;;;;;;12.98;1.08;;;12.80;96.10;;;;;;5073761;28;20041;-78
2022/09/19 01:36:11;;;;;;;15.40;1.77;;;12.90;96.10;;;;;;5073986;28;20476;-78
2022/09/19 01:38:38;;;;;;;10.32;1.58;;;12.90;96.00;;;;;;5074380;28;20145;-77
2022/09/19 01:41:07;;;;;;;11.10;1.88;;;12.90;96.10;;;;;;5074115;28;20047;-78
2022/09/19 01:43:33;;;;;;;10.57;1.20;;;12.90;95.90;;;;;;5073789;28;20043;-77
2022/09/19 01:46:08;;;;;;;15.90;1.55;;;12.90;95.90;;;;;;5074204;28;20138;-77
2022/09/19 01:48:45;;;;;;;14.10;1.50;;;12.90;95.70;;;;;;5073926;28;20028;-77
2022/09/19 01:51:26;;;;;;;14.63;1.60;;;12.80;95.70;;;;;;5073729;28;20020;-78
2022/09/19 01:54:08;;;;;;;8.60;1.33;;;12.80;95.80;;;;;;5074044;28;20074;-77
2022/09/19 01:56:47;;;;;;;8.93;1.00;;;12.70;95.90;;;;;;5073938;28;20108;-77
2022/09/19 01:59:22;;;;;;;13.38;1.35;;;12.80;96.00;;;;;;5073979;28;20091;-77
2022/09/19 02:02:00;;;;;;;10.45;0.90;;;12.80;96.00;;;;;;5073826;28;20105;-77
2022/09/19 02:04:44;;;;;;;8.57;0.93;;;12.80;96.00;;;;;;5073531;28;20032;-77
2022/09/19 02:07:13;;;;;;;18.00;1.60;;;12.80;96.00;;;;;;5073551;28;20404;-77
2022/09/19 02:10:00;;;;;;;9.20;0.82;;;12.80;95.80;;;;;;5073713;28;20024;-77
2022/09/19 02:12:27;;;;;;;10.73;1.15;;;12.90;95.80;;;;;;5073801;28;20052;-77
2022/09/19 02:14:55;;;;;;;9.85;1.35;;;12.90;95.70;;;;;;5073186;28;20380;-77
2022/09/19 02:17:33;;;;;;;12.18;1.20;;;12.80;95.60;;;;;;5073280;28;20069;-77
2022/09/19 02:20:11;;;;;;;10.23;0.90;;;12.80;95.60;;;;;;5073392;28;20494;-77
2022/09/19 02:22:49;;;;;;;15.48;1.50;;;12.90;95.60;;;;;;5073256;28;20029;-77
2022/09/19 02:25:20;;;;;;;14.70;1.67;;;12.80;95.60;;;;;;5073549;28;20028;-78
2022/09/19 02:27:59;;;;;;;11.32;0.90;;;12.80;95.60;;;;;;5072941;28;20483;-78
2022/09/19 02:30:25;;;;;;;8.88;0.98;;;12.70;95.70;;;;;;5073586;28;20070;-77
2022/09/19 02:32:51;;;;;;;8.32;1.05;;;12.70;95.70;;;;;;5073450;28;20025;-77
2022/09/19 02:35:47;;;;;;;9.85;1.20;;;12.70;95.80;;;;;;5073429;28;20020;-77
2022/09/19 02:38:49;;;;;;;10.07;1.13;;;12.70;95.80;;;;;;5056827;28;20029;-77
2022/09/19 02:41:42;;;;;;;7.45;1.00;;;12.70;95.80;;;;;;5067898;28;20043;-77
2022/09/19 02:44:19;;;;;;;10.27;0.98;;;12.70;95.80;;;;;;5073210;28;20093;-77
2022/09/19 02:46:47;;;;;;;12.95;1.23;;;12.70;95.80;;;;;;5073398;28;20028;-77
2022/09/19 02:49:29;;;;;;;8.73;0.85;;;12.70;95.80;;;;;;5077134;28;20031;-77
2022/09/19 02:52:00;;;;;;;16.15;1.25;;;12.70;95.90;;;;;;5080050;28;20024;-77
2022/09/19 02:54:30;;;;;;;15.18;1.73;;;12.70;96.00;;;;;;5079456;28;20024;-77
2022/09/19 02:57:00;;;;;;;6.72;0.70;;;12.70;96.00;;;;;;5079689;28;20025;-77
2022/09/19 02:59:31;;;;;;;10.55;1.00;;;12.70;96.00;;;;;;5080082;28;20029;-77
2022/09/19 03:02:10;;;;;;;10.73;1.38;;;12.70;96.10;;;;;;5079495;28;20496;-77
2022/09/19 03:04:40;;;;;;;7.80;0.95;;;12.70;96.10;;;;;;5079623;28;20069;-77
2022/09/19 03:07:16;;;;;;;12.65;1.10;;;12.70;96.20;;;;;;5079896;28;20020;-77
2022/09/19 03:09:59;;;;;;;11.05;1.25;;;12.70;96.30;;;;;;5079851;28;20097;-77
2022/09/19 03:12:38;;;;;;;10.10;0.90;;;12.60;96.30;;;;;;5079825;28;20079;-77
2022/09/19 03:15:05;;;;;;;11.80;1.00;;;12.70;96.50;;;;;;5079376;28;20028;-77
2022/09/19 03:17:49;;;;;;;8.65;0.73;;;12.70;96.60;;;;;;5079871;28;20095;-77
2022/09/19 03:20:16;;;;;;;11.10;1.00;;;12.70;96.70;;;;;;5079775;28;20039;-78
2022/09/19 03:22:41;;;;;;;8.95;1.02;;;12.70;96.70;;;;;;5079591;28;20124;-77
2022/09/19 03:25:09;;;;;;;9.98;0.75;;;12.70;96.90;;;;;;5079600;28;20111;-78
2022/09/19 03:27:36;;;;;;;12.48;1.38;;;12.80;96.90;;;;;;5079221;28;20048;-77
2022/09/19 03:30:07;;;;;;;14.13;1.10;;;12.80;96.90;;;;;;5079350;28;20024;-78
2022/09/19 03:32:34;;;;;;;9.70;0.85;;;12.80;96.80;;;;;;5079685;28;20035;-78
2022/09/19 03:35:00;;;;;;;12.30;1.25;;;12.80;96.70;;;;;;5079513;28;20082;-78
2022/09/19 03:37:25;;;;;;;10.25;0.98;;;12.90;96.70;;;;;;5079282;28;20357;-78
2022/09/19 03:39:51;;;;;;;8.15;1.15;;;12.90;96.70;;;;;;5079083;28;20028;-78
2022/09/19 03:42:19;;;;;;;13.85;1.10;;;12.90;96.60;;;;;;5079400;28;20029;-78
2022/09/19 03:44:45;;;;;;;10.60;0.95;;;12.90;96.50;;;;;;5079467;28;20036;-78
2022/09/19 03:47:11;;;;;;;9.57;0.82;;;12.80;96.40;;;;;;5078747;28;20025;-78
2022/09/19 03:49:36;;;;;;;10.15;0.80;;;12.90;96.40;;;;;;5079486;28;20028;-75
2022/09/19 03:52:02;;;;;;;11.98;0.85;;;12.80;96.30;;;;;;5078888;28;20107;-77
2022/09/19 03:54:27;;;;;;;11.43;1.00;;;12.90;96.30;;;;;;5079197;28;20040;-75
2022/09/19 03:56:54;;;;;;;18.80;1.60;;;12.90;96.30;;;;;;5079180;28;20021;-76
2022/09/19 03:59:19;;;;;;;13.13;1.10;;;12.80;96.20;;;;;;5078947;28;20020;-77
2022/09/19 04:01:45;;;;;;;13.77;1.45;;;12.80;96.30;;;;;;5074521;28;20535;-77
2022/09/19 04:04:11;;;;;;;10.35;0.90;;;12.80;96.30;;;;;;5076078;28;20077;-77
2022/09/19 04:06:37;;;;;;;6.07;0.82;;;12.80;96.30;;;;;;5075885;28;20055;-77
2022/09/19 04:09:03;;;;;;;9.98;1.33;;;12.70;96.40;;;;;;5075769;28;20111;-77
2022/09/19 04:11:29;;;;;;;8.88;1.00;;;12.70;96.50;;;;;;5075790;28;20050;-77
2022/09/19 04:13:55;;;;;;;7.55;1.10;;;12.70;96.60;;;;;;5075680;28;20111;-77
2022/09/19 04:16:24;;;;;;;15.98;1.13;;;12.60;96.70;;;;;;5075565;28;20032;-77
2022/09/19 04:18:50;;;;;;;13.63;1.15;;;12.60;96.80;;;;;;5075913;28;20024;-77
2022/09/19 04:21:17;;;;;;;8.43;0.80;;;12.60;96.80;;;;;;5075861;28;20028;-77
2022/09/19 04:23:43;;;;;;;12.75;1.00;;;12.60;96.90;;;;;;5075486;28;20495;-77
2022/09/19 04:26:12;;;;;;;9.02;1.23;;;12.60;96.90;;;;;;5075328;28;20025;-77
2022/09/19 04:28:40;;;;;;;10.00;0.90;;;12.60;96.90;;;;;;5075319;28;20419;-77
2022/09/19 04:31:08;;;;;;;11.88;1.23;;;12.60;97.00;;;;;;5075574;28;20032;-77
2022/09/19 04:33:34;;;;;;;16.50;1.50;;;12.60;97.00;;;;;;5075561;28;20095;-77
2022/09/19 04:36:00;;;;;;;10.18;1.20;;;12.60;97.10;;;;;;5075660;28;20027;-77
2022/09/19 04:38:28;;;;;;;7.40;0.90;;;12.60;97.10;;;;;;5075517;28;20107;-77
2022/09/19 04:40:57;;;;;;;8.38;0.70;;;12.60;97.20;;;;;;5075254;28;20028;-77
2022/09/19 04:43:25;;;;;;;6.82;0.60;;;12.70;97.30;;;;;;5075061;28;20032;-77
2022/09/19 04:45:51;;;;;;;7.65;1.33;;;12.70;97.30;;;;;;5075015;28;20453;-77
2022/09/19 04:48:17;;;;;;;8.98;0.82;;;12.70;97.30;;;;;;5075233;28;20035;-78
2022/09/19 04:50:50;;;;;;;10.07;1.30;;;12.70;97.40;;;;;;5075358;28;20024;-79
2022/09/19 04:53:18;;;;;;;8.98;1.13;;;12.70;97.50;;;;;;5074792;28;20052;-79
2022/09/19 04:55:48;;;;;;;12.07;1.10;;;12.70;97.50;;;;;;5074781;28;20048;-79
2022/09/19 04:58:15;;;;;;;9.13;0.75;;;12.80;97.50;;;;;;5075113;28;20029;-79
2022/09/19 05:00:41;;;;;;;11.82;1.25;;;12.80;97.60;;;;;;5075146;28;20025;-79
2022/09/19 05:03:15;;;;;;;9.40;0.90;;;12.80;97.60;;;;;;5074957;28;20032;-79
2022/09/19 05:05:44;;;;;;;14.57;1.27;;;12.80;97.60;;;;;;5074543;28;20480;-79
2022/09/19 05:08:15;;;;;;;9.38;0.88;;;12.80;97.60;;;;;;5074842;28;20449;-80
2022/09/19 05:10:42;;;;;;;10.70;1.00;;;12.80;97.60;;;;;;5074631;28;20031;-80
2022/09/19 05:13:08;;;;;;;9.55;0.80;;;12.80;97.60;;;;;;5074212;28;20046;-79
2022/09/19 05:15:34;;;;;;;13.52;1.45;;;12.90;97.70;;;;;;5074455;28;20028;-78
2022/09/19 05:18:00;;;;;;;9.20;0.90;;;12.90;97.60;;;;;;5074274;28;20035;-79
2022/09/19 05:20:26;;;;;;;6.30;0.65;;;12.80;97.60;;;;;;5074697;28;20021;-79
2022/09/19 05:22:58;;;;;;;13.63;1.00;;;12.90;97.60;;;;;;5074384;28;20029;-78
2022/09/19 05:25:28;;;;;;;13.23;1.38;;;12.90;97.60;;;;;;5074111;28;20035;-79
2022/09/19 05:27:57;;;;;;;9.18;0.93;;;12.80;97.60;;;;;;5074229;28;20049;-79
2022/09/19 05:30:24;;;;;;;8.75;1.20;;;12.90;97.70;;;;;;5074055;28;20020;-79
2022/09/19 05:32:50;;;;;;;9.63;0.90;;;12.80;98.00;;;;;;5074031;28;20480;-78
2022/09/19 05:35:16;;;;;;;14.05;0.90;;;12.90;97.70;;;;;;5074277;28;20033;-81
2022/09/19 05:37:44;;;;;;;5.28;0.70;;;12.90;97.70;;;;;;5074300;28;20029;-79
2022/09/19 05:40:10;;;;;;;9.88;1.15;;;12.90;97.70;;;;;;5073824;28;20104;-78
2022/09/19 05:42:40;;;;;;;6.50;1.08;;;12.90;97.70;;;;;;5074077;28;20452;-77
2022/09/19 05:45:06;;;;;;;8.57;0.65;;;12.90;97.70;;;;;;5073830;28;20032;-77
2022/09/19 05:47:32;;;;;;;11.38;1.80;;;12.90;98.00;;;;;;5073960;28;20117;-77
2022/09/19 05:49:57;;;;;;;9.65;0.88;;;13.00;97.80;;;;;;5073487;28;20055;-78
2022/09/19 05:55:08;;;;;;;9.30;0.88;;;13.00;97.80;;;;;;5073647;28;20028;-77
2022/09/19 05:57:34;;;;;;;11.25;0.93;;;13.00;97.80;;;;;;5073874;28;20100;-77
2022/09/19 05:59:59;;;;;;;8.98;1.10;;;13.10;97.80;;;;;;5073686;28;20071;-77
2022/09/19 06:02:25;;;;;;;9.48;0.80;;;13.10;97.80;;;;;;5073310;28;20051;-77
2022/09/19 06:04:51;;;;;;;7.28;0.93;;;13.10;97.90;;;;;;5073664;28;20032;-78
2022/09/19 06:07:16;;;;;;;12.20;1.00;;;13.10;97.90;;;;;;5063039;28;20017;-76
2022/09/19 06:09:42;;;;;;;9.52;0.80;;;13.10;98.00;;;;;;5053343;28;20029;-79
2022/09/19 06:12:08;;;;;;;9.70;0.90;;;13.10;98.00;;;;;;5053123;28;20025;-81
2022/09/19 06:14:38;;;;;;;10.55;0.60;;;13.20;98.10;;;;;;5053373;28;20021;-80
2022/09/19 06:17:04;;;;;;;13.15;0.98;;;13.20;98.20;;;;;;5053543;28;20052;-79
2022/09/19 06:19:30;;;;;;;12.43;1.52;;;13.20;98.30;;;;;;5053539;28;20086;-78
2022/09/19 06:21:57;;;;;;;7.68;1.08;;;13.30;98.30;;;;;;5052836;28;20112;-79
2022/09/19 06:24:23;;;;;;;8.80;1.10;;;13.20;98.20;;;;;;5052707;28;20067;-79
2022/09/19 06:26:55;;;;;;;10.98;1.48;;;13.20;98.20;;;;;;5053676;28;20468;-75
2022/09/19 06:29:21;;;;;;;9.02;1.25;;;13.30;98.20;;;;;;5048625;28;20068;-78
2022/09/19 06:31:47;;;;;;;7.40;1.17;;;13.30;98.10;;;;;;5039988;28;20129;-76
2022/09/19 06:34:15;;;;;;;9.73;1.10;;;13.30;98.00;;;;;;5051898;28;20043;-77
2022/09/19 06:36:43;;;;;;;10.95;1.30;;;13.30;98.00;;;;;;5045414;28;20029;-81
2022/09/19 06:39:08;;;;;;;10.27;1.25;;;13.30;98.00;;;;;;5030609;28;20444;-76
2022/09/19 06:41:35;;;;;;;15.98;1.30;;;13.30;97.90;;;;;;5032657;28;20025;-79
2022/09/19 06:44:02;;;;;;;13.48;1.17;;;13.30;97.80;;;;;;5031615;28;20044;-78
2022/09/19 06:46:27;;;;;;;10.68;0.88;;;13.30;97.80;;;;;;5033152;28;20025;-78
2022/09/19 06:48:53;;;;;;;8.73;0.85;;;13.30;97.80;;;;;;5032867;28;20036;-78
2022/09/19 06:51:19;;;;;;;8.30;1.00;;;13.30;97.70;;;;;;5033219;28;20025;-79
2022/09/19 06:53:47;;;;;;;13.57;1.40;;;13.30;97.70;;;;;;5035412;28;20029;-77
2022/09/19 06:56:13;;;;;;;8.82;1.00;;;13.30;97.60;;;;;;5053127;28;20099;-75
2022/09/19 06:58:39;;;;;;;9.65;1.02;;;13.30;97.60;;;;;;5053025;28;20025;-77
2022/09/19 07:01:04;;;;;;;8.18;0.98;;;13.40;97.60;;;;;;5052569;28;20075;-78
2022/09/19 07:03:30;;;;;;;11.52;1.38;;;13.50;97.60;;;;;;5053066;28;20476;-76
2022/09/19 07:05:59;;;;;;;15.65;1.48;;;13.50;97.50;;;;;;5053075;28;20534;-74
2022/09/19 07:08:25;;;;;;;13.75;1.25;;;13.60;97.40;;;;;;5052528;28;20025;-75
2022/09/19 07:10:50;;;;;;;14.20;1.15;;;13.60;97.40;;;;;;5051596;28;20021;-75
2022/09/19 07:13:16;;;;;;;8.63;1.10;;;13.60;97.40;;;;;;5051490;28;20519;-76
2022/09/19 07:15:42;;;;;;;12.82;1.40;;;13.60;97.50;;;;;;5051145;28;20033;-75
2022/09/19 07:18:10;;;;;;;10.63;1.10;;;13.70;97.50;;;;;;5051967;28;20029;-76
2022/09/19 07:20:36;;;;;;;8.70;1.00;;;13.80;97.50;;;;;;5051395;28;20036;-76
2022/09/19 07:23:04;;;;;;;11.45;1.10;;;13.80;97.40;;;;;;5051063;28;20384;-76
2022/09/19 07:25:31;;;;;;;7.72;1.05;;;13.90;97.40;;;;;;5051447;28;20108;-73
2022/09/19 07:27:59;;;;;;;10.13;0.82;;;13.90;97.60;;;;;;5051050;28;20052;-77
2022/09/19 07:30:25;;;;;;;11.60;1.10;;;14.00;97.40;;;;;;5051452;28;20021;-76
2022/09/19 07:32:54;;;;;;;11.52;1.33;;;14.10;97.40;;;;;;5046141;28;20083;-76
2022/09/19 07:35:20;;;;;;;7.35;0.88;;;14.20;97.20;;;;;;5049337;28;20025;-76
2022/09/19 07:37:50;;;;;;;12.45;1.23;;;14.30;97.10;;;;;;5054732;28;20469;-77
2022/09/19 07:40:15;;;;;;;9.45;1.20;;;14.40;97.20;;;;;;5054716;28;20025;-76
2022/09/19 07:42:41;;;;;;;19.25;1.27;;;14.50;96.90;;;;;;5054613;28;20388;-76
2022/09/19 07:45:07;;;;;;;12.85;0.90;;;14.60;96.70;;;;;;5054519;28;20029;-79
2022/09/19 07:47:32;;;;;;;11.48;0.90;;;14.60;96.50;;;;;;5054653;28;20021;-77
2022/09/19 07:49:58;;;;;;;9.45;1.10;;;14.70;96.50;;;;;;5055058;28;20033;-77
2022/09/19 07:52:24;;;;;;;13.98;1.73;;;14.80;96.70;;;;;;5054787;28;20021;-77
2022/09/19 07:54:50;;;;;;;9.63;1.10;;;14.80;97.10;;;;;;5054537;28;20059;-78
2022/09/19 07:57:16;;;;;;;9.48;1.33;;;15.00;97.20;;;;;;5054428;28;20058;-77
2022/09/19 07:59:42;;;;;;;8.90;1.45;;;15.10;97.10;;;;;;5053923;28;20021;-76
2022/09/19 08:02:11;;;;;;;16.73;1.70;;;15.00;96.40;;;;;;5054392;28;20039;-79
2022/09/19 08:04:37;;;;;;;13.15;1.02;;;15.00;96.60;;;;;;5054120;28;20116;-74
2022/09/19 08:07:04;;;;;;;8.82;1.17;;;15.00;96.60;;;;;;5054735;28;20029;-77
2022/09/19 08:09:30;;;;;;;8.30;0.80;;;15.10;96.60;;;;;;5054066;28;20538;-76
2022/09/19 08:11:57;;;;;;;7.13;0.73;;;15.20;96.70;;;;;;5054169;28;20029;-77
2022/09/19 08:14:23;;;;;;;9.52;0.80;;;15.40;96.50;;;;;;5054033;28;20095;-76
2022/09/19 08:16:50;;;;;;;11.55;1.00;;;15.40;96.20;;;;;;5054363;28;20029;-76
2022/09/19 08:19:16;;;;;;;7.63;0.90;;;15.50;96.00;;;;;;5054741;28;20025;-76
2022/09/19 08:21:42;;;;;;;17.92;1.13;;;15.60;95.90;;;;;;5053924;28;20438;-75
2022/09/19 08:24:07;;;;;;;12.93;1.42;;;15.70;95.80;;;;;;5053481;28;20033;-74
2022/09/19 08:26:33;;;;;;;9.93;1.30;;;15.80;95.90;;;;;;5054348;28;20419;-78
2022/09/19 08:28:59;;;;;;;11.25;1.20;;;16.00;95.50;;;;;;5056899;28;20052;-75
2022/09/19 08:31:25;;;;;;;9.90;1.30;;;16.00;95.20;;;;;;5063249;28;20594;-78
2022/09/19 08:33:50;;;;;;;8.75;0.73;;;16.20;95.10;;;;;;5066224;28;20051;-80
2022/09/19 08:36:16;;;;;;;9.30;0.88;;;16.20;94.40;;;;;;5054998;28;20021;-76
2022/09/19 08:38:43;;;;;;;13.05;1.42;;;16.30;94.40;;;;;;5056742;28;20021;-76
2022/09/19 08:41:26;;;;;;;11.93;1.63;;;16.30;94.20;;;;;;5055804;28;20025;-79
2022/09/19 08:43:59;;;;;;;11.43;1.63;;;16.40;93.60;;;;;;5068738;28;20036;-78
2022/09/19 08:46:50;;;;;;;9.52;0.95;;;16.40;93.60;;;;;;5056893;28;20377;-78
2022/09/19 08:49:39;;;;;;;11.40;1.02;;;16.50;93.50;;;;;;5052914;28;20084;-77
2022/09/19 08:52:26;;;;;;;10.77;1.27;;;16.50;93.30;;;;;;5057858;28;20115;-79
2022/09/19 08:54:53;;;;;;;9.13;0.75;;;16.50;93.20;;;;;;5063551;28;20024;-78
2022/09/19 08:57:32;;;;;;;10.27;0.98;;;16.60;93.00;;;;;;5067121;28;20389;-78
2022/09/19 09:00:03;;;;;;;7.30;0.80;;;16.50;93.20;;;;;;5057158;28;20068;-79
2022/09/19 09:02:49;;;;;;;13.45;0.98;;;16.40;93.20;;;;;;5065607;28;20040;-77
2022/09/19 09:05:23;;;;;;;5.30;0.60;;;16.30;92.90;;;;;;5064757;28;20024;-77
2022/09/19 09:07:55;;;;;;;9.43;1.02;;;16.20;93.10;;;;;;5058966;28;20032;-76
2022/09/19 09:10:29;;;;;;;9.00;0.80;;;16.30;93.40;;;;;;5061328;28;20029;-78
2022/09/19 09:13:09;;;;;;;6.97;0.55;;;16.40;93.20;;;;;;5066562;28;20037;-78
2022/09/19 09:15:50;;;;;;;9.27;0.80;;;16.50;92.30;;;;;;5070083;28;20020;-78
2022/09/19 09:18:31;;;;;;;11.60;0.88;;;16.50;91.60;;;;;;5056536;28;20040;-77
2022/09/19 09:21:06;;;;;;;9.00;0.70;;;16.50;91.70;;;;;;5066926;28;20033;-77
2022/09/19 09:23:38;;;;;;;7.57;0.50;;;16.30;92.50;;;;;;5070644;28;20036;-77
2022/09/19 09:26:16;;;;;;;8.93;0.57;;;16.20;93.00;;;;;;5059476;28;20083;-78
2022/09/19 09:28:48;;;;;;;7.38;0.50;;;16.00;93.90;;;;;;5056269;28;20080;-77
2022/09/19 09:31:25;;;;;;;6.28;0.30;;;15.90;94.10;;;;;;5071363;28;20106;-77
2022/09/19 09:34:03;;;;;;;8.50;0.85;;;15.80;94.20;;;;;;5064115;28;20032;-76
2022/09/19 09:36:42;;;;;;;3.92;0.45;;;15.80;94.50;;;;;;5060167;28;20028;-76
2022/09/19 09:40:08;;;;;;;4.47;0.40;;;15.70;94.70;;;;;;5064910;28;20031;-74
2022/09/19 09:42:52;;;;;;;8.10;0.40;;;15.70;94.80;;;;;;5065354;28;20052;-74
2022/09/19 09:45:30;;;;;;;5.43;0.82;;;15.80;94.80;;;;;;5064809;28;20302;-74
2022/09/19 09:48:14;;;;;;;5.43;0.40;;;16.00;96.10;;;;;;5070476;28;20158;-74
2022/09/19 09:50:48;;;;;;;5.00;0.60;;;16.20;95.90;;;;;;5064539;28;20032;-79
2022/09/19 09:53:49;;;;;;;4.78;0.35;;;16.10;94.60;;;;;;5060193;28;20047;-77
2022/09/19 09:56:47;;;;;;;6.32;0.57;;;16.10;94.70;;;;;;5061857;28;20029;-79
2022/09/19 10:05:44;;;;;;;3.83;0.30;;;16.10;93.80;;;;;;5061312;28;20047;-77
2022/09/19 10:08:43;;;;;;;3.80;0.30;;;16.10;93.80;;;;;;5063593;28;20472;-78
2022/09/19 10:11:20;;;;;;;2.70;0.30;;;16.10;94.10;;;;;;5058183;28;20055;-79
2022/09/19 10:13:57;;;;;;;4.60;0.30;;;16.20;93.80;;;;;;5054376;28;20028;-77
2022/09/19 10:16:24;;;;;;;5.43;0.40;;;16.20;93.80;;;;;;5054808;28;20039;-76
2022/09/19 10:18:58;;;;;;;10.30;0.50;;;16.20;93.20;;;;;;5058526;28;20024;-77
2022/09/19 10:21:24;;;;;;;4.70;0.50;;;16.30;93.40;;;;;;5058711;28;20036;-77
2022/09/19 10:23:50;;;;;;;7.45;0.40;;;16.30;93.30;;;;;;5052809;28;20090;-77
2022/09/19 10:26:25;;;;;;;4.63;0.60;;;16.30;93.20;;;;;;5059339;28;20367;-76
2022/09/19 10:28:54;;;;;;;6.88;0.77;;;16.50;92.90;;;;;;5059579;28;20052;-75
2022/09/19 10:31:31;;;;;;;3.10;0.30;;;16.70;92.70;;;;;;5063730;28;20036;-76
2022/09/19 10:33:59;;;;;;;2.33;0.20;;;16.90;91.20;;;;;;5069479;28;20025;-76
2022/09/19 10:36:32;;;;;;;1.27;0.10;;;16.90;90.70;;;;;;5064558;28;20124;-75
2022/09/19 10:39:03;;;;;;;2.38;0.20;;;16.80;90.30;;;;;;5069115;28;20074;-75
2022/09/19 10:41:31;;;;;;;4.13;0.20;;;16.80;90.40;;;;;;5063719;28;20086;-74
2022/09/19 10:44:02;;;;;;;0.35;0.00;;;16.80;90.00;;;;;;5064524;28;20040;-76
2022/09/19 10:46:36;;;;;;;1.10;0.20;;;16.80;90.40;;;;;;5059491;28;20063;-75
2022/09/19 10:49:13;;;;;;;3.80;0.20;;;16.80;90.00;;;;;;5068313;28;20055;-75
2022/09/19 10:51:44;;;;;;;2.47;0.10;;;16.80;90.10;;;;;;5064267;28;20033;-75
2022/09/19 10:54:17;;;;;;;2.20;0.20;;;16.70;89.20;;;;;;5070743;28;20025;-75
2022/09/19 10:56:43;;;;;;;3.22;0.20;;;16.60;89.70;;;;;;5060271;28;20432;-75
2022/09/19 10:59:12;;;;;;;2.92;0.32;;;16.60;90.30;;;;;;5058877;28;20060;-75
2022/09/19 11:01:39;;;;;;;3.38;0.60;;;16.50;90.70;;;;;;5056818;28;20392;-75
2022/09/19 11:04:22;;;;;;;1.95;0.10;;;16.40;91.00;;;;;;5053076;28;20044;-75
2022/09/19 11:07:02;;;;;;;2.72;0.40;;;16.30;91.50;;;;;;5055139;28;20032;-75
2022/09/19 11:09:34;;;;;;;2.58;0.50;;;16.20;91.30;;;;;;5069955;28;20035;-75
2022/09/19 11:12:20;;;;;;;4.32;0.30;;;16.20;91.60;;;;;;5067310;28;20025;-75
2022/09/19 11:14:49;;;;;;;3.30;0.30;;;16.30;91.50;;;;;;5060429;28;20414;-75
2022/09/19 11:17:37;;;;;;;3.33;0.35;;;16.40;91.00;;;;;;5065252;28;20024;-77
2022/09/19 11:20:32;;;;;;;1.95;0.10;;;16.50;90.30;;;;;;5063692;28;20031;-77
2022/09/19 11:23:28;;;;;;;2.55;0.20;;;16.60;90.00;;;;;;5071161;28;20029;-78
2022/09/19 11:26:00;;;;;;;1.92;0.10;;;16.80;88.70;;;;;;5067630;28;20040;-77
2022/09/19 11:28:35;;;;;;;;;;;16.90;86.20;;;;;;5069863;28;20045;-78
2022/09/19 11:31:17;;;;;;;1.80;0.15;;;17.10;86.10;;;;;;5070659;28;19962;-75
2022/09/19 11:33:56;;;;;;;2.30;0.20;;;17.00;84.80;;;;;;5069689;28;20112;-79
2022/09/19 11:36:44;;;;;;;1.90;0.15;;;17.00;84.50;;;;;;5058200;28;20078;-82
2022/09/19 11:39:21;;;;;;;2.58;0.20;;;17.00;84.60;;;;;;5057439;28;20029;-80
2022/09/19 11:41:52;;;;;;;4.28;0.22;;;17.20;85.30;;;;;;5068326;28;20494;-77
2022/09/19 11:44:40;;;;;;;2.35;0.30;;;17.40;85.70;;;;;;5056274;28;20060;-80
2022/09/19 11:47:22;;;;;;;2.63;0.20;;;17.60;83.80;;;;;;5060367;28;20484;-79
2022/09/19 11:50:02;;;;;;;1.15;0.10;;;17.60;83.90;;;;;;5059893;28;20427;-78
2022/09/19 11:52:57;;;;;;;2.33;0.20;;;17.40;81.40;;;;;;5067692;28;20579;-78
2022/09/19 11:56:00;;;;;;;2.38;0.20;;;17.30;80.40;;;;;;5057638;28;20035;-78
2022/09/19 11:59:13;;;;;;;3.03;0.10;;;17.40;79.60;;;;;;5062356;28;20361;-80
2022/09/19 12:02:10;;;;;;;2.40;0.30;;;17.70;79.30;;;;;;5061606;28;20029;-81
2022/09/19 12:05:06;;;;;;;2.30;0.13;;;17.90;79.00;;;;;;5064458;28;20036;-80
2022/09/19 12:07:47;;;;;;;1.83;0.10;;;18.10;78.60;;;;;;5059324;28;20476;-80
2022/09/19 12:10:29;;;;;;;1.40;0.20;;;18.40;77.20;;;;;;5069859;28;20048;-81
2022/09/19 12:13:08;;;;;;;2.15;0.10;;;18.50;73.30;;;;;;5064385;28;20021;-80
2022/09/19 12:15:36;;;;;;;4.40;0.20;;;18.60;74.10;;;;;;5056593;28;20025;-80
2022/09/19 12:18:09;;;;;;;1.40;0.20;;;18.80;74.60;;;;;;5057286;28;20032;-81
2022/09/19 12:20:42;;;;;;;2.95;0.30;;;18.90;75.60;;;;;;5069591;28;20104;-82
2022/09/19 12:26:05;;;;;;;1.42;0.20;;;18.80;74.80;;;;;;5054475;28;20001;-82
2022/09/19 12:28:36;;;;;;;2.50;0.30;;;18.70;75.60;;;;;;5068269;28;20399;-81
2022/09/19 12:31:06;;;;;;;3.25;0.30;;;18.50;76.00;;;;;;5057523;28;20548;-81
2022/09/19 12:33:43;;;;;;;3.65;0.30;;;18.40;77.00;;;;;;5058708;28;20119;-80
2022/09/19 12:36:30;;;;;;;3.15;0.20;;;18.40;77.90;;;;;;5061497;28;20029;-79
2022/09/19 12:38:58;;;;;;;2.40;0.20;;;18.40;77.50;;;;;;5061860;28;20025;-78
2022/09/19 12:41:40;;;;;;;2.80;0.30;;;18.50;76.50;;;;;;5055839;28;20036;-76
2022/09/19 12:44:27;;;;;;;2.65;0.20;;;18.50;76.70;;;;;;5063852;28;20036;-76
2022/09/19 12:47:08;;;;;;;2.92;0.20;;;18.60;76.90;;;;;;5058797;28;20474;-76
2022/09/19 12:49:57;;;;;;;4.95;0.30;;;18.80;76.10;;;;;;5067333;28;20025;-77
2022/09/19 12:52:47;;;;;;;2.17;0.13;;;19.00;76.60;;;;;;5059027;28;20047;-77
2022/09/19 12:55:15;;;;;;;3.10;0.40;;;19.00;72.60;;;;;;5063747;28;20385;-81
2022/09/19 12:58:20;;;;;;;2.63;0.20;;;19.00;75.10;;;;;;5064036;28;20361;-76
2022/09/19 13:00:48;;;;;;;3.33;0.20;;;19.30;76.20;;;;;;5056020;28;20025;-70
2022/09/19 13:03:17;;;;;;;2.47;0.30;;;19.50;74.20;;;;;;5061342;28;20072;-73
2022/09/19 13:05:59;;;;;;;3.92;0.20;;;19.60;73.00;;;;;;5055939;28;20380;-72
2022/09/19 13:08:41;;;;;;;2.08;0.40;;;19.60;70.20;;;;;;5054402;28;20099;-72
2022/09/19 13:11:13;;;;;;;3.92;0.30;;;19.50;71.00;;;;;;5054572;28;20033;-72
2022/09/19 13:13:56;;;;;;;1.75;0.10;;;19.40;71.00;;;;;;5054692;28;20021;-72
2022/09/19 13:16:33;;;;;;;;;;;19.20;69.40;;;;;;5055237;28;20055;-72
2022/09/19 13:24:47;;;;;;;5.63;0.30;;;18.40;70.70;;;;;;5041406;28;20045;-73
2022/09/19 13:27:14;;;;;;;2.13;0.20;;;18.30;69.60;;;;;;5053107;28;20453;-72
2022/09/19 13:29:43;;;;;;;3.35;0.60;;;18.20;70.50;;;;;;5053413;28;20104;-73